Time;durP1;ratioP1;P1;durP2;ratioP2;P2;SDS_P1;SDS_P2;PMS_P1;PMS_P2;Temp;Humidity;BMP_temperature;BMP_pressure;BME280_temperature;BME280_humidity;BME280_pressure;Samples;Min_cycle;Max_cycle;Signal;HPM_P1;HPM_P2
2022/06/21 00:00:23;;;;;;;;;1.00;1.00;;;;;22.82;50.78;98179.53;6252288;27;96759;-66
2022/06/21 00:03:28;;;;;;;;;2.80;2.20;;;;;22.83;50.95;98183.13;6255071;27;97223;-69
2022/06/21 00:06:32;;;;;;;;;1.00;1.00;;;;;22.82;51.17;98192.50;6243587;27;99979;-68
2022/06/21 00:09:36;;;;;;;;;2.40;2.40;;;;;22.85;51.36;98200.09;6241246;27;97721;-70
2022/06/21 00:12:40;;;;;;;;;3.00;2.60;;;;;22.79;51.84;98202.19;6256760;27;97575;-69
2022/06/21 00:15:45;;;;;;;;;2.00;2.00;;;;;22.80;52.51;98214.00;6246662;27;96628;-70
2022/06/21 00:18:50;;;;;;;;;5.00;4.00;;;;;22.74;53.04;98210.56;6264042;27;97545;-68
2022/06/21 00:21:53;;;;;;;;;3.40;3.40;;;;;22.68;54.57;98231.03;6247969;27;97054;-69
2022/06/21 00:24:58;;;;;;;;;4.00;4.00;;;;;22.56;54.31;98224.53;6265380;27;97386;-67
2022/06/21 00:28:01;;;;;;;;;5.00;5.00;;;;;22.46;54.72;98218.19;6263947;27;97246;-67
2022/06/21 00:31:07;;;;;;;;;4.00;4.00;;;;;22.40;54.62;98230.41;6255837;27;97417;-69
2022/06/21 00:34:15;;;;;;;;;5.00;4.00;;;;;22.29;54.66;98228.22;6260708;27;97878;-68
2022/06/21 00:37:22;;;;;;;;;4.00;4.00;;;;;22.14;55.28;98223.16;6216047;27;98987;-66
2022/06/21 00:40:29;;;;;;;;;3.00;3.00;;;;;22.13;55.12;98227.03;6239059;27;96607;-68
2022/06/21 00:43:37;;;;;;;;;4.25;4.00;;;;;22.01;55.61;98231.13;6264935;27;97548;-70
2022/06/21 00:46:46;;;;;;;;;3.20;3.20;;;;;22.04;54.89;98233.25;6246309;27;96992;-67
2022/06/21 00:49:53;;;;;;;;;5.00;4.00;;;;;22.09;54.82;98221.31;6265331;27;97084;-67
2022/06/21 00:53:02;;;;;;;;;5.00;4.60;;;;;22.01;55.01;98239.38;6265259;27;97556;-68
2022/06/21 00:56:13;;;;;;;;;4.00;4.00;;;;;22.12;54.07;98241.84;6243179;27;97861;-67
2022/06/21 00:59:20;;;;;;;;;2.80;2.80;;;;;22.14;53.94;98237.66;6265344;27;97415;-69
2022/06/21 01:02:30;;;;;;;;;3.00;3.00;;;;;22.12;52.42;98244.59;6259233;27;96550;-69
2022/06/21 01:05:38;;;;;;;;;2.00;2.00;;;;;21.84;51.81;98200.78;6265330;27;97025;-67
2022/06/21 01:08:47;;;;;;;;;2.00;2.00;;;;;22.03;51.38;98228.91;6246267;27;97162;-67
2022/06/21 01:11:59;;;;;;;;;1.00;1.00;;;;;22.06;50.57;98230.19;6259253;27;97812;-68
2022/06/21 01:15:08;;;;;;;;;2.00;2.00;;;;;21.99;50.21;98227.88;6261353;27;96692;-68
2022/06/21 01:18:14;;;;;;;;;3.00;2.40;;;;;21.98;50.17;98226.28;6259771;27;98370;-68
2022/06/21 01:21:19;;;;;;;;;2.00;2.00;;;;;21.95;50.72;98226.06;6264481;27;97438;-67
2022/06/21 01:24:32;;;;;;;;;2.00;2.00;;;;;21.90;50.03;98226.16;6259234;27;97912;-68
2022/06/21 01:27:38;;;;;;;;;3.00;3.00;;;;;21.88;50.38;98221.00;6245718;27;99468;-69
2022/06/21 01:30:44;;;;;;;;;1.00;1.00;;;;;21.90;50.49;98226.16;6243412;27;96942;-68
2022/06/21 01:33:48;;;;;;;;;1.00;1.00;;;;;21.85;50.43;98224.34;6245449;27;98036;-67
2022/06/21 01:36:55;;;;;;;;;2.40;2.40;;;;;21.84;50.40;98228.25;6259628;27;97337;-68
2022/06/21 01:40:07;;;;;;;;;3.00;2.00;;;;;21.79;49.86;98225.63;6246311;27;97773;-68
2022/06/21 01:43:15;;;;;;;;;3.00;3.00;;;;;21.80;49.73;98220.91;6259037;27;97733;-68
2022/06/21 01:46:22;;;;;;;;;2.75;2.75;;;;;21.71;49.99;98236.50;6264716;27;96659;-68
2022/06/21 01:49:28;;;;;;;;;4.00;4.00;;;;;21.67;50.23;98236.31;6255839;27;97561;-69
2022/06/21 01:52:37;;;;;;;;;3.75;3.00;;;;;21.58;49.51;98236.25;6244069;27;96746;-70
2022/06/21 01:55:44;;;;;;;;;3.75;3.00;;;;;21.54;49.24;98245.41;6244130;27;97160;-69
2022/06/21 01:58:53;;;;;;;;;5.00;4.80;;;;;21.44;48.89;98242.88;6239376;27;97386;-68
2022/06/21 02:02:01;;;;;;;;;5.00;5.00;;;;;21.46;49.29;98240.63;6244074;27;97193;-68
2022/06/21 02:05:08;;;;;;;;;4.00;4.00;;;;;21.41;49.27;98243.47;6254192;27;96730;-67
2022/06/21 02:08:15;;;;;;;;;6.00;6.00;;;;;21.34;49.23;98243.91;6258434;27;97066;-69
2022/06/21 02:11:23;;;;;;;;;4.40;4.00;;;;;21.37;49.25;98237.81;6260292;27;96604;-70
2022/06/21 02:14:31;;;;;;;;;2.80;2.80;;;;;21.26;49.17;98246.56;6245670;27;97198;-69
2022/06/21 02:17:40;;;;;;;;;3.00;3.00;;;;;21.28;49.33;98247.06;6263990;27;97533;-68
2022/06/21 02:20:48;;;;;;;;;5.00;5.00;;;;;21.20;49.84;98250.53;6244943;27;98137;-67
2022/06/21 02:23:54;;;;;;;;;3.00;3.00;;;;;21.10;49.98;98252.34;6260807;27;97506;-68
2022/06/21 02:27:00;;;;;;;;;4.20;4.20;;;;;21.15;49.85;98252.25;6240547;27;96655;-68
2022/06/21 02:30:15;;;;;;;;;5.50;4.50;;;;;21.18;50.15;98254.38;6261915;27;97538;-69
2022/06/21 02:33:23;;;;;;;;;5.00;5.00;;;;;21.25;50.13;98262.19;6243816;27;98283;-67
2022/06/21 02:36:31;;;;;;;;;3.00;3.00;;;;;21.30;50.07;98272.25;6256465;27;96587;-67
2022/06/21 02:39:36;;;;;;;;;5.00;4.00;;;;;21.22;50.14;98265.53;6252508;27;97699;-70
2022/06/21 02:42:43;;;;;;;;;3.00;3.00;;;;;21.27;49.60;98259.94;6262351;27;98617;-69
2022/06/21 02:45:52;;;;;;;;;4.00;4.00;;;;;21.31;49.67;98271.91;6240339;27;98704;-70
2022/06/21 02:48:59;;;;;;;;;4.00;4.00;;;;;21.24;49.98;98263.31;6244734;27;96699;-67
2022/06/21 02:52:07;;;;;;;;;4.00;4.00;;;;;21.22;49.91;98260.06;6215082;27;96816;-67
2022/06/21 02:55:31;;;;;;;;;3.00;3.00;;;;;21.16;50.36;98262.09;6262530;27;97815;-67
2022/06/21 02:58:39;;;;;;;;;3.60;3.60;;;;;21.05;50.44;98260.66;6240839;27;97362;-68
2022/06/21 03:01:49;;;;;;;;;4.00;4.00;;;;;21.07;50.75;98266.63;6238793;27;100018;-67
2022/06/21 03:04:56;;;;;;;;;4.00;3.40;;;;;21.10;49.92;98266.03;6261320;27;97530;-69
2022/06/21 03:08:03;;;;;;;;;4.00;3.00;;;;;20.93;49.44;98270.47;6229309;27;97741;-69
2022/06/21 03:11:07;;;;;;;;;5.00;4.25;;;;;20.98;48.94;98275.88;6258426;27;97668;-66
2022/06/21 03:14:14;;;;;;;;;6.00;6.00;;;;;21.00;48.72;98279.13;6232219;27;97887;-68
2022/06/21 03:17:27;;;;;;;;;4.00;3.50;;;;;20.87;49.39;98286.22;6243426;27;96578;-68
2022/06/21 03:20:33;;;;;;;;;4.00;4.00;;;;;20.89;49.33;98288.66;6262428;27;98154;-66
2022/06/21 03:23:36;;;;;;;;;4.00;4.00;;;;;20.90;49.07;98293.03;6241962;27;97174;-67
2022/06/21 03:26:45;;;;;;;;;4.00;4.00;;;;;20.89;48.53;98305.09;6238231;27;97724;-67
2022/06/21 03:29:48;;;;;;;;;5.00;4.20;;;;;20.71;48.39;98301.31;6261558;27;96802;-69
2022/06/21 03:32:55;;;;;;;;;5.00;5.00;;;;;20.72;48.45;98300.22;6259471;27;97674;-68
2022/06/21 03:35:59;;;;;;;;;3.75;3.00;;;;;20.69;47.72;98309.84;6243481;27;98445;-66
2022/06/21 03:39:08;;;;;;;;;4.00;4.00;;;;;20.78;47.63;98301.72;6245438;27;97018;-70
2022/06/21 03:42:14;;;;;;;;;5.00;5.00;;;;;20.77;47.88;98311.88;6238752;27;96604;-69
2022/06/21 03:45:22;;;;;;;;;4.00;4.00;;;;;20.83;47.63;98295.34;6227468;27;98361;-70
2022/06/21 03:48:33;;;;;;;;;5.00;5.00;;;;;20.83;47.66;98292.59;6243914;27;96773;-70
2022/06/21 03:51:40;;;;;;;;;4.00;4.00;;;;;21.03;47.91;98305.91;6213861;27;99951;-67
2022/06/21 03:54:49;;;;;;;;;5.00;4.00;;;;;21.17;47.29;98298.53;6260382;27;98142;-70
2022/06/21 03:58:01;;;;;;;;;4.00;4.00;;;;;21.28;46.51;98312.84;6239620;27;96740;-70
2022/06/21 04:01:23;;;;;;;;;5.00;4.00;;;;;21.32;46.66;98300.16;6258186;27;97191;-68
2022/06/21 04:04:32;;;;;;;;;4.50;4.50;;;;;21.43;46.90;98304.31;6217041;27;99040;-70
2022/06/21 04:07:41;;;;;;;;;5.00;4.00;;;;;21.52;46.45;98306.03;6257544;27;96693;-69
2022/06/21 04:10:51;;;;;;;;;4.00;4.00;;;;;21.58;47.21;98302.06;6239864;27;97178;-70
2022/06/21 04:14:05;;;;;;;;;4.00;4.00;;;;;21.56;45.97;98307.03;6241322;27;98997;-72
2022/06/21 04:17:16;;;;;;;;;4.00;4.00;;;;;21.39;46.77;98295.91;6228468;27;97431;-71
2022/06/21 04:20:27;;;;;;;;;5.00;4.60;;;;;21.41;46.16;98288.16;6256959;27;97229;-71
2022/06/21 04:23:36;;;;;;;;;6.40;6.00;;;;;21.11;47.26;98264.91;6250716;27;97400;-72
2022/06/21 04:26:46;;;;;;;;;5.50;5.50;;;;;21.02;47.84;98294.13;6261634;27;97359;-72
2022/06/21 04:29:54;;;;;;;;;5.00;5.00;;;;;20.63;48.36;98266.38;6259775;27;96704;-71
2022/06/21 04:33:04;;;;;;;;;6.00;6.00;;;;;20.72;48.04;98298.25;6242580;27;98928;-72
2022/06/21 04:36:14;;;;;;;;;5.00;5.00;;;;;20.56;48.27;98296.09;6260477;27;97352;-71
2022/06/21 04:39:22;;;;;;;;;5.00;5.00;;;;;20.62;48.39;98292.97;6242024;27;98281;-70
2022/06/21 04:42:31;;;;;;;;;5.40;5.00;;;;;20.61;48.24;98293.28;6238080;27;98967;-70
2022/06/21 04:45:43;;;;;;;;;5.25;5.00;;;;;20.47;48.30;98301.47;6261312;27;96525;-70
2022/06/21 04:48:52;;;;;;;;;5.00;4.00;;;;;20.42;49.01;98301.56;6260782;27;96596;-72
2022/06/21 04:52:02;;;;;;;;;5.00;5.00;;;;;20.43;48.84;98297.69;6261479;27;97461;-72
2022/06/21 04:55:13;;;;;;;;;5.00;4.00;;;;;20.57;49.43;98282.13;6263990;27;96767;-72
2022/06/21 04:58:17;;;;;;;;;8.00;6.40;;;;;20.61;49.60;98285.88;6243707;27;100303;-71
2022/06/21 05:01:32;;;;;;;;;6.00;5.00;;;;;20.74;48.98;98287.81;6236151;28;97444;-72
2022/06/21 05:04:40;;;;;;;;;5.00;5.00;;;;;20.68;49.53;98299.16;6241744;27;97036;-71
2022/06/21 05:07:49;;;;;;;;;7.00;5.40;;;;;20.84;49.28;98314.22;6264070;27;97541;-70
2022/06/21 05:10:56;;;;;;;;;4.80;4.20;;;;;20.79;48.76;98314.31;6242882;27;97885;-70
2022/06/21 05:14:01;;;;;;;;;4.00;4.00;;;;;20.92;48.70;98319.00;6252581;27;97689;-70
2022/06/21 05:17:10;;;;;;;;;6.40;6.00;;;;;20.95;48.55;98320.31;6225198;27;98755;-71
2022/06/21 05:20:18;;;;;;;;;8.00;6.00;;;;;21.01;48.10;98319.13;6246632;27;96784;-71
2022/06/21 05:23:25;;;;;;;;;7.60;7.60;;;;;20.68;48.25;98313.69;6243283;27;97169;-70
2022/06/21 05:26:34;;;;;;;;;8.00;8.00;;;;;20.71;48.15;98315.84;6244873;27;97073;-70
2022/06/21 05:29:44;;;;;;;;;6.00;6.00;;;;;20.69;48.08;98314.50;6252602;27;98020;-71
2022/06/21 05:32:53;;;;;;;;;5.33;5.00;;;;;20.54;47.34;98317.50;6228475;27;100075;-71
2022/06/21 05:35:57;;;;;;;;;6.00;6.00;;;;;20.73;47.55;98321.81;6220217;28;98497;-71
2022/06/21 05:39:07;;;;;;;;;5.00;5.00;;;;;20.85;46.09;98320.50;6238149;28;99444;-71
2022/06/21 05:42:14;;;;;;;;;6.00;6.00;;;;;21.02;46.42;98327.03;6263543;27;97409;-71
2022/06/21 05:45:19;;;;;;;;;7.00;6.20;;;;;21.17;46.30;98323.22;6246099;27;99577;-72
2022/06/21 05:48:25;;;;;;;;;6.00;6.00;;;;;21.08;46.99;98328.56;6264138;27;96564;-72
2022/06/21 05:51:33;;;;;;;;;6.50;6.50;;;;;21.27;45.57;98319.44;6225155;28;96577;-71
2022/06/21 05:54:46;;;;;;;;;6.40;6.40;;;;;21.17;45.28;98323.22;6237365;28;97475;-71
2022/06/21 05:57:54;;;;;;;;;7.00;7.00;;;;;21.37;45.09;98333.78;6219215;28;96759;-72
2022/06/21 06:01:05;;;;;;;;;6.00;6.00;;;;;21.39;45.48;98326.06;6254433;27;97984;-70
2022/06/21 06:04:17;;;;;;;;;6.00;6.00;;;;;21.63;45.80;98319.53;6263261;27;97572;-71
2022/06/21 06:07:27;;;;;;;;;6.00;6.00;;;;;21.55;45.79;98318.34;6264134;27;97952;-72
2022/06/21 06:10:33;;;;;;;;;7.40;7.00;;;;;21.71;44.70;98325.09;6261037;27;96605;-71
2022/06/21 06:13:43;;;;;;;;;6.00;6.00;;;;;21.70;43.18;98320.72;6262869;27;98103;-72
2022/06/21 06:16:52;;;;;;;;;5.00;5.00;;;;;21.76;42.82;98303.03;6262586;27;96970;-70
2022/06/21 06:20:02;;;;;;;;;6.00;6.00;;;;;21.91;43.09;98334.81;6263664;27;97109;-72
2022/06/21 06:23:17;;;;;;;;;6.00;5.00;;;;;21.97;42.85;98333.63;6263066;27;97022;-72
2022/06/21 06:26:26;;;;;;;;;5.00;5.00;;;;;22.08;41.92;98332.28;6245493;27;96571;-71
2022/06/21 06:29:34;;;;;;;;;5.00;5.00;;;;;22.02;42.50;98328.00;6246015;27;96844;-71
2022/06/21 06:32:42;;;;;;;;;6.40;6.00;;;;;21.83;42.15;98328.13;6264322;27;96979;-72
2022/06/21 06:35:48;;;;;;;;;5.00;4.00;;;;;21.97;42.75;98336.38;6228467;27;98420;-71
2022/06/21 06:38:52;;;;;;;;;5.40;5.00;;;;;22.04;42.71;98328.50;6244797;27;99617;-72
2022/06/21 06:42:04;;;;;;;;;7.40;6.60;;;;;22.26;42.30;98331.28;6245478;27;98493;-71
2022/06/21 06:45:14;;;;;;;;;7.00;5.60;;;;;22.32;41.87;98323.75;6264500;27;96510;-72
2022/06/21 06:48:29;;;;;;;;;3.80;3.20;;;;;22.54;40.36;98309.16;6246074;27;96666;-72
2022/06/21 06:51:45;;;;;;;;;5.00;5.00;;;;;22.55;40.04;98324.53;6229040;27;96627;-72
2022/06/21 06:54:56;;;;;;;;;5.00;4.00;;;;;22.77;39.66;98328.09;6245591;27;98333;-73
2022/06/21 06:58:05;;;;;;;;;4.25;4.00;;;;;23.04;39.58;98312.56;6245370;27;99433;-70
2022/06/21 07:01:15;;;;;;;;;4.40;4.00;;;;;23.13;38.23;98308.72;6263632;27;97382;-72
2022/06/21 07:04:20;;;;;;;;;4.00;4.00;;;;;23.07;37.88;98307.22;6245226;27;99853;-72
2022/06/21 07:07:30;;;;;;;;;4.80;4.00;;;;;22.85;38.11;98297.13;6220425;28;99693;-73
2022/06/21 07:10:34;;;;;;;;;4.00;4.00;;;;;22.64;38.34;98317.97;6237380;28;98347;-73
2022/06/21 07:13:38;;;;;;;;;3.00;3.00;;;;;22.36;38.66;98317.31;6238529;28;96367;-71
2022/06/21 07:16:44;;;;;;;;;3.00;3.00;;;;;22.61;38.70;98318.59;6244530;27;97892;-72
2022/06/21 07:19:47;;;;;;;;;4.00;3.00;;;;;22.65;38.08;98311.34;6263242;27;96877;-72
2022/06/21 07:22:55;;;;;;;;;4.50;4.00;;;;;22.76;37.34;98311.94;6263530;27;97990;-71
2022/06/21 07:26:05;;;;;;;;;3.00;3.00;;;;;22.83;36.58;98306.78;6245151;27;97211;-72
2022/06/21 07:29:17;;;;;;;;;3.00;3.00;;;;;23.05;36.15;98317.75;6262738;27;96468;-72
2022/06/21 07:32:26;;;;;;;;;4.00;4.00;;;;;22.92;36.63;98318.63;6263139;27;96988;-72
2022/06/21 07:35:35;;;;;;;;;3.00;2.00;;;;;22.92;36.04;98320.59;6244668;27;96697;-71
2022/06/21 07:38:47;;;;;;;;;3.00;3.00;;;;;22.95;36.04;98319.94;6264051;27;96689;-72
2022/06/21 07:41:56;;;;;;;;;4.00;3.00;;;;;23.03;35.89;98332.91;6243965;27;98500;-70
2022/06/21 07:45:07;;;;;;;;;3.80;3.00;;;;;23.30;36.05;98329.97;6238588;27;96854;-71
2022/06/21 07:48:17;;;;;;;;;3.00;3.00;;;;;23.36;34.71;98336.94;6248817;27;97354;-74
2022/06/21 07:51:26;;;;;;;;;2.00;2.00;;;;;23.30;35.58;98339.03;6254061;27;97222;-71
2022/06/21 07:54:35;;;;;;;;;4.00;4.00;;;;;23.11;35.75;98280.75;6259314;27;96771;-73
2022/06/21 07:57:44;;;;;;;;;4.00;4.00;;;;;23.62;35.41;98317.78;6243344;27;98041;-72
2022/06/21 08:07:49;;;;;;;;;3.00;2.20;;;;;23.70;34.10;98345.31;6251262;27;97479;-71
2022/06/21 08:10:59;;;;;;;;;3.00;3.00;;;;;23.38;33.10;98342.13;6258371;27;97653;-72
2022/06/21 08:14:03;;;;;;;;;2.00;2.00;;;;;23.21;33.40;98346.44;6261656;27;97449;-73
2022/06/21 08:17:20;;;;;;;;;3.00;2.00;;;;;23.16;32.86;98349.34;6261231;27;97709;-71
2022/06/21 08:20:28;;;;;;;;;2.00;2.00;;;;;23.21;33.69;98349.19;6244103;27;98445;-70
2022/06/21 08:23:39;;;;;;;;;1.00;1.00;;;;;23.42;33.21;98334.84;6262792;27;96448;-72
2022/06/21 08:26:50;;;;;;;;;3.00;2.20;;;;;23.24;33.01;98340.31;6262390;27;97535;-72
2022/06/21 08:29:57;;;;;;;;;2.00;2.00;;;;;23.52;32.49;98335.41;6222065;28;97826;-72
2022/06/21 08:33:09;;;;;;;;;2.00;2.00;;;;;23.48;31.97;98337.19;6213983;27;98088;-71
2022/06/21 08:36:18;;;;;;;;;2.00;2.00;;;;;23.75;32.24;98330.59;6248652;27;97557;-71
2022/06/21 08:39:27;;;;;;;;;2.00;2.00;;;;;24.10;32.57;98350.72;6266579;27;96405;-71
2022/06/21 08:43:00;;;;;;;;;2.00;2.00;;;;;24.21;32.62;98332.78;6248376;27;96525;-71
2022/06/21 08:46:18;;;;;;;;;2.00;2.00;;;;;24.46;32.58;98362.28;6248163;27;96828;-73
2022/06/21 08:49:55;;;;;;;;;2.75;2.75;;;;;24.53;31.23;98370.84;6231624;27;96525;-72
2022/06/21 08:53:07;;;;;;;;;1.60;1.60;;;;;24.26;31.52;98359.38;6265917;27;96633;-72
2022/06/21 08:56:16;;;;;;;;;2.00;2.00;;;;;24.19;32.03;98364.56;6224475;27;97208;-72
2022/06/21 08:59:31;;;;;;;;;4.00;4.00;;;;;24.01;31.93;98364.50;6207643;28;97744;-74
2022/06/21 09:02:47;;;;;;;;;2.00;1.00;;;;;23.88;32.50;98372.91;6255859;27;96413;-75
2022/06/21 09:06:14;;;;;;;;;2.40;2.00;;;;;23.85;33.30;98382.59;6248797;27;97038;-72
2022/06/21 09:09:38;;;;;;;;;3.00;3.00;;;;;23.70;32.66;98388.56;6260678;27;96771;-73
2022/06/21 09:12:57;;;;;;;;;1.75;1.75;;;;;23.88;32.49;98379.22;6240305;28;96476;-74
2022/06/21 09:16:08;;;;;;;;;2.00;2.00;;;;;23.95;31.82;98395.25;6236963;28;97618;-74
2022/06/21 09:19:28;;;;;;;;;2.20;1.20;;;;;23.84;31.86;98388.44;6205956;28;97117;-75
2022/06/21 09:22:48;;;;;;;;;2.60;2.60;;;;;23.98;31.76;98376.16;6241368;28;96951;-74
2022/06/21 09:26:05;;;;;;;;;2.00;2.00;;;;;24.28;32.16;98379.16;6248746;27;96410;-74
2022/06/21 09:29:19;;;;;;;;;2.00;1.40;;;;;24.30;31.43;98376.84;6245924;27;96656;-72
2022/06/21 09:32:32;;;;;;;;;2.00;2.00;;;;;24.36;31.23;98392.91;6230811;27;96714;-73
2022/06/21 09:35:50;;;;;;;;;1.75;1.00;;;;;24.36;31.82;98387.41;6263387;27;96623;-75
2022/06/21 09:39:11;;;;;;;;;2.00;2.00;;;;;24.14;31.88;98362.75;6253296;27;96585;-73
2022/06/21 09:42:24;;;;;;;;;3.00;2.00;;;;;24.21;32.00;98379.63;6247398;27;96622;-73
2022/06/21 09:45:36;;;;;;;;;2.00;1.00;;;;;24.43;32.44;98378.66;6266036;27;98123;-74
2022/06/21 09:48:46;;;;;;;;;2.00;1.40;;;;;24.57;32.68;98393.09;6265933;27;97100;-73
2022/06/21 09:52:16;;;;;;;;;2.40;2.00;;;;;24.54;32.27;98378.00;6230138;27;98908;-74
2022/06/21 09:55:31;;;;;;;;;2.80;2.00;;;;;24.41;32.37;98384.50;6247027;27;97490;-74
2022/06/21 09:58:42;;;;;;;;;1.00;1.00;;;;;24.22;32.60;98388.69;6247366;27;97440;-74
2022/06/21 10:01:52;;;;;;;;;2.00;2.00;;;;;24.12;32.52;98389.78;6263303;27;97446;-74
2022/06/21 10:05:07;;;;;;;;;2.40;1.40;;;;;24.25;32.49;98382.53;6261183;27;96642;-73
2022/06/21 10:08:24;;;;;;;;;2.25;2.00;;;;;23.99;32.38;98391.56;6257488;27;97413;-73
2022/06/21 10:11:44;;;;;;;;;2.00;2.00;;;;;23.78;33.16;98396.03;6235095;27;96813;-75
2022/06/21 10:15:05;;;;;;;;;3.00;3.00;;;;;23.64;33.39;98387.09;6241904;27;97371;-75
2022/06/21 10:18:35;;;;;;;;;3.00;3.00;;;;;23.53;33.62;98386.56;6260278;27;96498;-73
2022/06/21 10:22:00;;;;;;;;;4.00;4.00;;;;;23.75;33.33;98377.38;6262278;27;97008;-74
2022/06/21 10:25:35;;;;;;;;;4.00;4.00;;;;;24.09;33.10;98382.97;6257733;27;96826;-75
2022/06/21 10:28:56;;;;;;;;;3.00;3.00;;;;;24.16;32.63;98363.22;6259946;27;96594;-74
2022/06/21 10:32:20;;;;;;;;;2.00;2.00;;;;;24.01;32.57;98385.72;6244528;27;97430;-75
2022/06/21 10:35:54;;;;;;;;;3.00;3.00;;;;;23.92;33.18;98374.69;6261608;27;97015;-73
2022/06/21 10:39:19;;;;;;;;;3.00;2.00;;;;;23.59;33.49;98385.31;6223939;27;98306;-73
2022/06/21 10:42:50;;;;;;;;;1.20;1.20;;;;;23.44;33.87;98384.88;6260300;27;97577;-73
2022/06/21 10:45:59;;;;;;;;;2.20;2.20;;;;;23.38;34.42;98388.88;6262360;27;97102;-73
2022/06/21 10:49:36;;;;;;;;;2.00;2.00;;;;;23.51;34.16;98401.75;6245681;27;100481;-73
2022/06/21 10:53:04;;;;;;;;;2.40;2.00;;;;;23.62;33.87;98395.66;6262184;27;97485;-74
2022/06/21 11:03:39;;;;;;;;;2.00;2.00;;;;;23.57;34.43;98390.28;6239957;27;98448;-74
2022/06/21 11:06:51;;;;;;;;;3.00;3.00;;;;;23.60;32.93;98405.38;6220741;28;97701;-71
2022/06/21 11:10:02;;;;;;;;;2.00;1.75;;;;;23.20;32.67;98333.00;6237572;27;99572;-73
2022/06/21 11:13:14;;;;;;;;;3.00;3.00;;;;;23.60;33.05;98388.88;6245039;27;97129;-73
2022/06/21 11:16:24;;;;;;;;;2.00;2.00;;;;;23.78;33.29;98386.97;6260259;27;97024;-74
2022/06/21 11:19:43;;;;;;;;;2.40;2.00;;;;;23.78;32.46;98404.28;6262017;27;96631;-73
2022/06/21 11:22:55;;;;;;;;;2.00;2.00;;;;;23.78;32.50;98393.28;6243747;27;96500;-74
2022/06/21 11:26:03;;;;;;;;;2.00;2.00;;;;;23.77;32.88;98405.41;6241393;27;99894;-72
2022/06/21 11:29:38;;;;;;;;;2.00;2.00;;;;;23.53;33.86;98410.50;6226234;27;97419;-71
2022/06/21 11:32:54;;;;;;;;;2.00;2.00;;;;;23.31;34.45;98422.38;6261802;27;96539;-74
2022/06/21 11:36:11;;;;;;;;;3.00;3.00;;;;;22.96;34.41;98413.13;6261533;27;96625;-73
2022/06/21 11:39:25;;;;;;;;;5.00;4.40;;;;;23.05;34.67;98399.41;6203435;28;96700;-74
2022/06/21 11:42:37;;;;;;;;;2.00;2.00;;;;;23.35;34.84;98406.03;6255525;27;96698;-74
2022/06/21 11:45:47;;;;;;;;;1.40;1.40;;;;;23.86;34.02;98405.44;6261911;27;97380;-74
2022/06/21 11:49:29;;;;;;;;;2.00;2.00;;;;;24.35;33.48;98402.31;6262206;27;96654;-74
2022/06/21 11:53:21;;;;;;;;;2.00;2.00;;;;;24.88;32.73;98407.50;6249317;27;97568;-74
2022/06/21 11:56:31;;;;;;;;;3.00;3.00;;;;;25.02;32.03;98407.34;6221258;27;97294;-74
2022/06/21 11:59:44;;;;;;;;;3.60;3.60;;;;;24.84;32.20;98400.19;6213402;27;96946;-74
2022/06/21 12:02:54;;;;;;;;;3.00;3.00;;;;;24.81;32.41;98411.88;6239568;27;96971;-73
2022/06/21 12:06:06;;;;;;;;;2.40;2.00;;;;;24.60;32.55;98401.50;6242300;27;97625;-73
2022/06/21 12:09:40;;;;;;;;;3.00;2.00;;;;;24.56;33.10;98406.06;6246187;27;98712;-74
2022/06/21 12:12:54;;;;;;;;;3.00;3.00;;;;;24.44;33.18;98405.06;6261857;27;98403;-74
2022/06/21 12:16:17;;;;;;;;;2.00;1.75;;;;;24.19;33.93;98403.13;6256583;27;96646;-73
2022/06/21 12:19:24;;;;;;;;;2.00;2.00;;;;;23.99;35.44;98413.59;6237030;27;98570;-74
2022/06/21 12:22:41;;;;;;;;;4.00;4.00;;;;;23.69;36.47;98422.72;6242053;27;99520;-75
2022/06/21 12:25:47;;;;;;;;;2.00;2.00;;;;;23.49;37.13;98404.84;6238903;27;99642;-75
2022/06/21 12:28:52;;;;;;;;;2.00;2.00;;;;;23.39;36.69;98415.28;6242479;27;96859;-74
2022/06/21 12:32:00;;;;;;;;;3.00;3.00;;;;;23.37;36.84;98414.78;6261862;27;96456;-73
2022/06/21 12:35:13;;;;;;;;;2.20;2.20;;;;;23.35;37.13;98417.84;6262305;27;96840;-74
2022/06/21 12:38:21;;;;;;;;;3.00;2.00;;;;;23.43;36.45;98408.81;6226304;27;98773;-73
2022/06/21 12:41:48;;;;;;;;;3.00;3.00;;;;;23.50;36.18;98413.91;6238922;27;96628;-74
2022/06/21 12:45:08;;;;;;;;;2.25;2.25;;;;;23.47;35.62;98406.28;6253123;27;97568;-74
2022/06/21 12:48:32;;;;;;;;;3.00;3.00;;;;;23.71;35.51;98401.19;6256686;27;96609;-73
2022/06/21 12:51:45;;;;;;;;;2.00;2.00;;;;;23.75;34.67;98391.97;6251796;27;96478;-74
2022/06/21 12:55:07;;;;;;;;;4.00;4.00;;;;;23.77;34.40;98396.34;6257046;27;97266;-72
2022/06/21 12:58:29;;;;;;;;;3.00;3.00;;;;;24.24;34.63;98391.94;6256110;27;97307;-74
2022/06/21 13:01:43;;;;;;;;;3.00;2.75;;;;;24.70;34.06;98399.53;6260474;27;97501;-73
2022/06/21 13:05:37;;;;;;;;;3.60;3.00;;;;;24.86;33.43;98375.84;6259158;27;97037;-73
2022/06/21 13:09:00;;;;;;;;;3.00;2.60;;;;;24.99;32.96;98383.97;6251800;27;96605;-74
2022/06/21 13:12:42;;;;;;;;;2.00;2.00;;;;;24.96;32.96;98381.88;6247049;27;97420;-74
2022/06/21 13:16:02;;;;;;;;;2.33;2.00;;;;;24.88;32.94;98399.22;6261968;27;97090;-73
2022/06/21 13:19:38;;;;;;;;;4.50;4.00;;;;;24.82;33.03;98378.47;6256507;27;96861;-73
2022/06/21 13:22:57;;;;;;;;;4.00;3.00;;;;;24.89;32.93;98384.31;6230879;27;97337;-73
2022/06/21 13:26:11;;;;;;;;;2.00;2.00;;;;;24.88;33.07;98366.13;6247040;27;96694;-72
2022/06/21 13:29:24;;;;;;;;;2.00;2.00;;;;;24.72;32.18;98378.81;6247286;27;96640;-73
2022/06/21 13:32:47;;;;;;;;;3.00;2.00;;;;;24.51;32.30;98378.66;6247222;27;96979;-73
2022/06/21 13:35:57;;;;;;;;;2.00;2.00;;;;;24.54;32.59;98379.94;6260008;27;98494;-72
2022/06/21 13:39:11;;;;;;;;;1.50;1.50;;;;;24.67;32.00;98383.66;6226321;27;97044;-73
2022/06/21 13:45:46;;;;;;;;;2.00;2.00;;;;;25.12;31.20;98381.34;6226855;27;98566;-73
2022/06/21 13:48:56;;;;;;;;;2.00;2.00;;;;;25.16;31.59;98388.63;6264886;27;96593;-73
2022/06/21 13:52:10;;;;;;;;;2.00;2.00;;;;;25.31;31.87;98385.34;6250744;27;97503;-73
2022/06/21 13:55:21;;;;;;;;;3.00;3.00;;;;;25.23;31.63;98383.41;6261726;27;96582;-74
2022/06/21 13:58:34;;;;;;;;;3.40;3.40;;;;;25.37;32.36;98380.44;6261557;27;97909;-73
2022/06/21 14:01:47;;;;;;;;;3.00;2.67;;;;;25.29;32.19;98389.56;6222085;27;99728;-72
2022/06/21 14:04:58;;;;;;;;;3.00;3.00;;;;;25.23;31.79;98394.44;6244045;27;100247;-72
2022/06/21 14:08:09;;;;;;;;;2.00;2.00;;;;;25.11;31.16;98391.56;6258811;27;97520;-72
2022/06/21 14:11:26;;;;;;;;;2.60;2.40;;;;;24.94;31.83;98386.09;6261895;27;96731;-72
2022/06/21 14:14:40;;;;;;;;;3.00;3.00;;;;;24.83;31.75;98388.34;6247080;27;98758;-73
2022/06/21 14:17:51;;;;;;;;;3.00;3.00;;;;;24.66;31.93;98393.06;6226058;27;97195;-73
2022/06/21 14:21:00;;;;;;;;;3.40;3.00;;;;;24.82;32.49;98377.66;6242782;27;97415;-73
2022/06/21 14:24:11;;;;;;;;;3.00;3.00;;;;;25.09;32.02;98388.31;6260710;27;96621;-74
2022/06/21 14:27:21;;;;;;;;;1.75;1.00;;;;;25.20;32.21;98397.06;6243642;27;96739;-72
2022/06/21 14:30:47;;;;;;;;;3.00;3.00;;;;;25.02;31.98;98386.06;6263586;27;97035;-73
2022/06/21 14:33:57;;;;;;;;;2.00;2.00;;;;;24.83;32.28;98388.34;6263079;27;97259;-73
2022/06/21 14:37:16;;;;;;;;;3.00;3.00;;;;;24.86;32.26;98387.69;6235918;27;97485;-72
2022/06/21 14:40:46;;;;;;;;;3.00;3.00;;;;;24.97;32.67;98399.22;6245814;27;97519;-73
2022/06/21 14:43:57;;;;;;;;;5.40;5.00;;;;;24.88;32.24;98407.50;6259382;27;97456;-74
2022/06/21 14:47:05;;;;;;;;;3.00;3.00;;;;;24.85;32.55;98385.25;6257776;27;96657;-73
2022/06/21 14:50:17;;;;;;;;;3.00;3.00;;;;;24.82;32.64;98392.25;6229634;27;97502;-71
2022/06/21 14:53:50;;;;;;;;;3.60;3.60;;;;;24.71;32.75;98387.41;6262514;27;97783;-70
2022/06/21 14:57:20;;;;;;;;;3.00;3.00;;;;;24.60;32.46;98381.41;6251728;27;97022;-69
2022/06/21 15:00:42;;;;;;;;;3.00;3.00;;;;;24.60;33.00;98387.72;6228141;27;99242;-71
2022/06/21 15:04:14;;;;;;;;;2.00;2.00;;;;;24.69;33.29;98373.94;6260374;27;97512;-70
2022/06/21 15:07:41;;;;;;;;;3.00;2.00;;;;;24.88;33.62;98377.16;6262794;27;97151;-71
2022/06/21 15:11:00;;;;;;;;;3.00;3.00;;;;;24.87;33.09;98397.63;6220389;27;98382;-71
2022/06/21 15:14:05;;;;;;;;;3.00;3.00;;;;;24.71;33.56;98406.69;6254200;27;97228;-72
2022/06/21 15:17:15;;;;;;;;;3.00;3.00;;;;;24.59;33.66;98386.09;6261048;27;97064;-71
2022/06/21 15:20:23;;;;;;;;;3.00;3.00;;;;;24.54;33.60;98379.94;6246830;27;97146;-71
2022/06/21 15:23:34;;;;;;;;;3.00;3.00;;;;;24.66;33.85;98380.09;6241496;27;96757;-71